createdAt,value
2017-09-22T00:00:08.974Z,1015.16
2017-09-22T00:01:19.232Z,1015.19
2017-09-22T00:02:29.489Z,1015.18
2017-09-22T00:03:39.419Z,1015.16
2017-09-22T00:04:49.668Z,1015.25
2017-09-22T00:05:59.593Z,1015.22
2017-09-22T00:07:09.533Z,1015.21
2017-09-22T00:08:19.777Z,1015.23
2017-09-22T00:09:29.717Z,1015.22
2017-09-22T00:10:39.975Z,1015.23
2017-09-22T00:11:49.944Z,1015.26
2017-09-22T00:13:00.225Z,1015.24
2017-09-22T00:14:10.495Z,1015.22
2017-09-22T00:15:20.754Z,1015.24
2017-09-22T00:16:31.001Z,1015.22
2017-09-22T00:17:41.189Z,1015.25
2017-09-22T00:18:51.138Z,1015.21
2017-09-22T00:20:01.076Z,1015.17
2017-09-22T00:21:11.335Z,1015.19
2017-09-22T00:22:20.956Z,1015.19
2017-09-22T00:23:30.825Z,1015.18
2017-09-22T00:24:41.071Z,1015.16
2017-09-22T00:25:51.052Z,1015.15
2017-09-22T00:27:00.985Z,1015.11
2017-09-22T00:28:11.238Z,1015.1
2017-09-22T00:29:21.542Z,1015.07
2017-09-22T00:30:31.812Z,1015.06
2017-09-22T00:31:42.059Z,1015.02
2017-09-22T00:32:52.002Z,1015.04
2017-09-22T00:34:02.259Z,1015.01
2017-09-22T00:35:12.780Z,1015
2017-09-22T00:36:23.037Z,1015.02
2017-09-22T00:37:33.287Z,1014.98
2017-09-22T00:38:43.554Z,1014.97
2017-09-22T00:39:53.487Z,1015.01
2017-09-22T00:41:04.087Z,1015.04
2017-09-22T00:42:14.332Z,1014.99
2017-09-22T00:43:24.270Z,1015.03
2017-09-22T00:44:34.213Z,1015.04
2017-09-22T00:45:44.461Z,1015.05
2017-09-22T00:46:55.065Z,1015.06
2017-09-22T00:48:05.316Z,1015.07
2017-09-22T00:49:15.579Z,1015.06
2017-09-22T00:50:25.945Z,1015.1
2017-09-22T00:51:36.210Z,1015.1
2017-09-22T00:52:46.822Z,1015.08
2017-09-22T00:53:56.754Z,1015.09
2017-09-22T00:55:07.013Z,1015.1
2017-09-22T00:56:17.274Z,1015.11
2017-09-22T00:57:26.899Z,1015.12
2017-09-22T00:58:37.399Z,1015.11
2017-09-22T00:59:47.645Z,1015.14
2017-09-22T01:00:57.893Z,1015.16
2017-09-22T01:02:07.842Z,1015.2
2017-09-22T01:03:18.083Z,1015.19
2017-09-22T01:04:28.689Z,1015.2
2017-09-22T01:05:38.934Z,1015.18
2017-09-22T01:06:48.874Z,1015.22
2017-09-22T01:07:59.126Z,1015.19
2017-09-22T01:09:09.372Z,1015.2
2017-09-22T01:10:19.652Z,1015.2
2017-09-22T01:11:28.991Z,1015.18
2017-09-22T01:12:39.248Z,1015.22
2017-09-22T01:13:49.494Z,1015.21
2017-09-22T01:14:59.431Z,1015.25
2017-09-22T01:16:09.611Z,1015.21
2017-09-22T01:17:19.550Z,1015.21
2017-09-22T01:18:29.505Z,1015.26
2017-09-22T01:19:39.798Z,1015.21
2017-09-22T01:20:50.045Z,1015.25
2017-09-22T01:22:00.360Z,1015.25
2017-09-22T01:23:10.297Z,1015.23
2017-09-22T01:24:20.552Z,1015.2
2017-09-22T01:25:30.806Z,1015.2
2017-09-22T01:26:41.112Z,1015.2
2017-09-22T01:27:51.614Z,1015.16
2017-09-22T01:29:01.230Z,1015.21
2017-09-22T01:30:11.482Z,1015.15
2017-09-22T01:31:21.724Z,1015.12
2017-09-22T01:32:31.970Z,1015.07
2017-09-22T01:33:42.569Z,1015.09
2017-09-22T01:34:52.828Z,1015.14
2017-09-22T01:36:03.074Z,1015.1
2017-09-22T01:37:13.010Z,1015.12
2017-09-22T01:38:23.258Z,1015.14
2017-09-22T01:39:33.489Z,1015.13
2017-09-22T01:40:43.425Z,1015.16
2017-09-22T01:41:53.674Z,1015.14
2017-09-22T01:43:03.916Z,1015.16
2017-09-22T01:44:14.160Z,1015.14
2017-09-22T01:45:24.756Z,1015.2
2017-09-22T01:46:34.706Z,1015.16
2017-09-22T01:47:44.320Z,1015.17
2017-09-22T01:48:54.622Z,1015.17
2017-09-22T01:50:04.883Z,1015.13
2017-09-22T01:51:15.387Z,1015.15
2017-09-22T01:52:25.636Z,1015.18
2017-09-22T01:53:35.301Z,1015.16
2017-09-22T01:54:45.564Z,1015.14
2017-09-22T01:55:55.813Z,1015.13
2017-09-22T01:57:06.001Z,1015.12
2017-09-22T01:58:16.251Z,1015.09
2017-09-22T01:59:26.187Z,1015.1
2017-09-22T02:00:36.166Z,1015.03
2017-09-22T02:01:46.112Z,1015.06
2017-09-22T02:02:56.397Z,1015.08
2017-09-22T02:04:06.645Z,1015.03
2017-09-22T02:05:16.898Z,1015.06
2017-09-22T02:06:26.821Z,1015.04
2017-09-22T02:07:36.763Z,1015.05
2017-09-22T02:08:47.257Z,1015.08
2017-09-22T02:09:57.501Z,1015.09
2017-09-22T02:11:07.435Z,1015.11
2017-09-22T02:12:17.691Z,1015.1
2017-09-22T02:13:27.627Z,1015.09
2017-09-22T02:14:38.234Z,1015.05
2017-09-22T02:15:48.494Z,1015.06
2017-09-22T02:16:58.427Z,1015.04
2017-09-22T02:18:08.672Z,1015.01
2017-09-22T02:19:18.600Z,1015.01
2017-09-22T02:20:29.196Z,1015
2017-09-22T02:21:38.817Z,1015.05
2017-09-22T02:22:48.756Z,1015.1
2017-09-22T02:23:58.389Z,1015.06
2017-09-22T02:25:08.619Z,1015.05
2017-09-22T02:26:19.164Z,1015.03
2017-09-22T02:27:29.425Z,1015
2017-09-22T02:28:39.668Z,1014.96
2017-09-22T02:29:49.916Z,1014.96
2017-09-22T02:31:00.162Z,1014.93
2017-09-22T02:32:10.773Z,1014.92
2017-09-22T02:33:21.028Z,1014.88
2017-09-22T02:34:30.965Z,1014.84
2017-09-22T02:35:41.217Z,1014.88
2017-09-22T02:36:51.452Z,1014.85
2017-09-22T02:38:01.648Z,1014.86
2017-09-22T02:39:11.583Z,1014.85
2017-09-22T02:40:21.835Z,1014.86
2017-09-22T02:41:32.088Z,1014.87
2017-09-22T02:42:42.334Z,1014.9
2017-09-22T02:43:52.630Z,1014.91
2017-09-22T02:45:02.877Z,1014.95
2017-09-22T02:46:13.131Z,1014.93
2017-09-22T02:47:23.379Z,1014.93
2017-09-22T02:48:33.633Z,1014.9
2017-09-22T02:49:44.239Z,1014.88
2017-09-22T02:50:54.169Z,1014.86
2017-09-22T02:52:04.422Z,1014.83
2017-09-22T02:53:14.907Z,1014.85
2017-09-22T02:54:25.166Z,1014.89
2017-09-22T02:55:35.737Z,1014.87
2017-09-22T02:56:45.681Z,1014.87
2017-09-22T02:57:55.925Z,1014.87
2017-09-22T02:59:05.852Z,1014.86
2017-09-22T03:00:15.470Z,1014.87
2017-09-22T03:01:25.971Z,1014.84
2017-09-22T03:02:36.219Z,1014.83
2017-09-22T03:03:46.467Z,1014.86
2017-09-22T03:04:56.407Z,1014.85
2017-09-22T03:06:06.669Z,1014.87
2017-09-22T03:07:17.163Z,1014.85
2017-09-22T03:08:26.484Z,1014.85
2017-09-22T03:09:36.422Z,1014.82
2017-09-22T03:10:46.357Z,1014.87
2017-09-22T03:11:55.664Z,1014.85
2017-09-22T03:13:06.168Z,1014.84
2017-09-22T03:14:16.106Z,1014.89
2017-09-22T03:15:26.353Z,1014.87
2017-09-22T03:16:36.298Z,1014.89
2017-09-22T03:17:46.551Z,1014.89
2017-09-22T03:18:57.051Z,1014.82
2017-09-22T03:20:07.000Z,1014.86
2017-09-22T03:21:16.928Z,1014.9
2017-09-22T03:22:26.547Z,1014.9
2017-09-22T03:23:36.796Z,1014.91
2017-09-22T03:24:46.980Z,1014.9
2017-09-22T03:25:57.224Z,1014.9
2017-09-22T03:27:07.474Z,1014.94
2017-09-22T03:28:17.416Z,1014.94
2017-09-22T03:29:27.665Z,1014.98
2017-09-22T03:30:38.258Z,1014.97
2017-09-22T03:31:48.519Z,1014.98
2017-09-22T03:32:58.773Z,1014.92
2017-09-22T03:34:09.016Z,1014.86
2017-09-22T03:35:19.270Z,1014.82
2017-09-22T03:36:29.139Z,1014.81
2017-09-22T03:37:39.074Z,1014.79
2017-09-22T03:38:49.362Z,1014.77
2017-09-22T03:39:58.978Z,1014.78
2017-09-22T03:41:09.236Z,1014.76
2017-09-22T03:42:19.734Z,1014.77
2017-09-22T03:43:30.014Z,1014.76
2017-09-22T03:44:40.269Z,1014.74
2017-09-22T03:45:50.525Z,1014.74
2017-09-22T03:47:00.768Z,1014.76
2017-09-22T03:48:11.054Z,1014.79
2017-09-22T03:49:21.302Z,1014.73
2017-09-22T03:50:31.241Z,1014.71
2017-09-22T03:51:41.499Z,1014.75
2017-09-22T03:52:51.740Z,1014.7
2017-09-22T03:54:02.028Z,1014.73
2017-09-22T03:55:12.273Z,1014.71
2017-09-22T03:56:22.207Z,1014.68
2017-09-22T03:57:32.457Z,1014.65
2017-09-22T03:58:42.713Z,1014.67
2017-09-22T03:59:53.318Z,1014.65
2017-09-22T04:01:03.563Z,1014.64
2017-09-22T04:02:13.826Z,1014.67
2017-09-22T04:03:24.081Z,1014.65
2017-09-22T04:04:34.334Z,1014.68
2017-09-22T04:05:44.307Z,1014.65
2017-09-22T04:06:54.550Z,1014.64
2017-09-22T04:08:04.475Z,1014.63
2017-09-22T04:09:14.402Z,1014.61
2017-09-22T04:10:24.661Z,1014.6
2017-09-22T04:11:35.166Z,1014.6
2017-09-22T04:12:45.411Z,1014.65
2017-09-22T04:13:55.706Z,1014.65
2017-09-22T04:15:05.959Z,1014.62
2017-09-22T04:16:15.953Z,1014.62
2017-09-22T04:17:26.454Z,1014.61
2017-09-22T04:18:36.707Z,1014.62
2017-09-22T04:19:46.965Z,1014.63
2017-09-22T04:20:57.214Z,1014.62
2017-09-22T04:22:07.714Z,1014.61
2017-09-22T04:23:17.942Z,1014.56
2017-09-22T04:24:28.198Z,1014.59
2017-09-22T04:25:38.456Z,1014.57
2017-09-22T04:26:48.714Z,1014.6
2017-09-22T04:27:58.964Z,1014.57
2017-09-22T04:29:09.572Z,1014.58
2017-09-22T04:30:19.826Z,1014.61
2017-09-22T04:31:30.068Z,1014.56
2017-09-22T04:32:40.000Z,1014.6
2017-09-22T04:33:50.255Z,1014.6
2017-09-22T04:35:00.205Z,1014.62
2017-09-22T04:36:09.832Z,1014.61
2017-09-22T04:37:19.765Z,1014.7
2017-09-22T04:38:30.015Z,1014.68
2017-09-22T04:39:40.272Z,1014.73
2017-09-22T04:40:50.780Z,1014.76
2017-09-22T04:42:00.719Z,1014.75
2017-09-22T04:43:10.846Z,1014.79
2017-09-22T04:44:20.779Z,1014.82
2017-09-22T04:45:30.713Z,1014.81
2017-09-22T04:46:40.998Z,1014.85
2017-09-22T04:47:51.239Z,1014.87
2017-09-22T04:49:01.488Z,1014.85
2017-09-22T04:50:11.739Z,1014.85
2017-09-22T04:51:21.987Z,1014.89
2017-09-22T04:52:31.845Z,1014.85
2017-09-22T04:53:42.103Z,1014.8
2017-09-22T04:54:52.372Z,1014.82
2017-09-22T04:56:02.637Z,1014.8
2017-09-22T04:57:12.905Z,1014.8
2017-09-22T04:58:23.507Z,1014.81
2017-09-22T04:59:33.765Z,1014.87
2017-09-22T05:00:44.023Z,1014.89
2017-09-22T05:01:53.961Z,1014.94
2017-09-22T05:03:03.886Z,1014.95
2017-09-22T05:04:14.117Z,1014.97
2017-09-22T05:05:24.379Z,1014.95
2017-09-22T05:06:34.325Z,1014.97
2017-09-22T05:07:44.266Z,1014.93
2017-09-22T05:08:54.526Z,1014.94
2017-09-22T05:10:04.822Z,1014.92
2017-09-22T05:11:15.098Z,1014.92
2017-09-22T05:12:25.363Z,1014.95
2017-09-22T05:13:35.329Z,1014.93
2017-09-22T05:14:45.270Z,1014.97
2017-09-22T05:15:55.777Z,1014.97
2017-09-22T05:17:05.413Z,1015
2017-09-22T05:18:15.661Z,1015.01
2017-09-22T05:19:25.908Z,1015
2017-09-22T05:20:36.154Z,1014.94
2017-09-22T05:21:46.339Z,1014.99
2017-09-22T05:22:56.280Z,1015.02
2017-09-22T05:24:06.527Z,1014.96
2017-09-22T05:25:16.787Z,1014.97
2017-09-22T05:26:27.036Z,1014.98
2017-09-22T05:27:37.534Z,1014.97
2017-09-22T05:28:47.785Z,1015
2017-09-22T05:29:57.405Z,1014.98
2017-09-22T05:31:07.365Z,1014.98
2017-09-22T05:32:17.320Z,1015.02
2017-09-22T05:33:27.571Z,1015.02
2017-09-22T05:34:37.568Z,1015
2017-09-22T05:35:47.831Z,1015.04
2017-09-22T05:36:57.787Z,1015.06
2017-09-22T05:38:07.733Z,1015.06
2017-09-22T05:39:18.367Z,1015.07
2017-09-22T05:40:28.626Z,1015.09
2017-09-22T05:41:38.904Z,1015.07
2017-09-22T05:42:48.854Z,1015.06
2017-09-22T05:43:58.794Z,1015.08
2017-09-22T05:45:09.292Z,1015.1
2017-09-22T05:46:19.242Z,1015.07
2017-09-22T05:47:29.497Z,1015.1
2017-09-22T05:48:39.761Z,1015.06
2017-09-22T05:49:50.023Z,1015.13
2017-09-22T05:51:00.534Z,1015.09
2017-09-22T05:52:10.474Z,1015.12
2017-09-22T05:53:20.747Z,1015.09
2017-09-22T05:54:30.994Z,1015.11
2017-09-22T05:55:41.256Z,1015.12
2017-09-22T05:56:51.439Z,1015.11
2017-09-22T05:58:01.710Z,1015.09
2017-09-22T05:59:12.188Z,1015.06
2017-09-22T06:00:22.129Z,1015.06
2017-09-22T06:01:32.384Z,1015.06
2017-09-22T06:02:42.890Z,1015.07
2017-09-22T06:03:53.150Z,1015.09
2017-09-22T06:05:03.408Z,1015.13
2017-09-22T06:06:13.672Z,1015.15
2017-09-22T06:07:23.642Z,1015.14
2017-09-22T06:08:34.190Z,1015.14
2017-09-22T06:09:44.438Z,1015.17
2017-09-22T06:10:54.061Z,1015.15
2017-09-22T06:12:04.325Z,1015.19
2017-09-22T06:13:14.260Z,1015.27
2017-09-22T06:14:24.555Z,1015.22
2017-09-22T06:15:34.500Z,1015.24
2017-09-22T06:16:44.746Z,1015.22
2017-09-22T06:17:54.694Z,1015.26
2017-09-22T06:19:04.987Z,1015.29
2017-09-22T06:20:15.604Z,1015.32
2017-09-22T06:21:26.071Z,1015.29
2017-09-22T06:22:36.334Z,1015.3
2017-09-22T06:23:46.287Z,1015.3
2017-09-22T06:24:56.240Z,1015.26
2017-09-22T06:26:06.850Z,1015.33
2017-09-22T06:27:16.797Z,1015.32
2017-09-22T06:28:26.102Z,1015.31
2017-09-22T06:29:36.363Z,1015.37
2017-09-22T06:30:46.309Z,1015.33
2017-09-22T06:31:56.948Z,1015.33
2017-09-22T06:33:07.244Z,1015.31
2017-09-22T06:34:17.364Z,1015.33
2017-09-22T06:35:27.658Z,1015.33
2017-09-22T06:36:37.970Z,1015.38
2017-09-22T06:37:48.498Z,1015.33
2017-09-22T06:38:58.817Z,1015.34
2017-09-22T06:40:09.115Z,1015.42
2017-09-22T06:41:19.396Z,1015.44
2017-09-22T06:42:29.355Z,1015.4
2017-09-22T06:43:39.967Z,1015.46
2017-09-22T06:44:50.254Z,1015.48
2017-09-22T06:46:00.268Z,1015.5
2017-09-22T06:47:10.242Z,1015.54
2017-09-22T06:48:20.539Z,1015.52
2017-09-22T06:49:30.854Z,1015.57
2017-09-22T06:50:41.136Z,1015.55
2017-09-22T06:51:51.398Z,1015.6
2017-09-22T06:53:01.728Z,1015.57
2017-09-22T06:54:11.991Z,1015.6
2017-09-22T06:55:22.490Z,1015.61
2017-09-22T06:56:32.685Z,1015.58
2017-09-22T06:57:42.945Z,1015.56
2017-09-22T06:58:53.202Z,1015.54
2017-09-22T07:00:03.458Z,1015.56
2017-09-22T07:01:14.046Z,1015.58
2017-09-22T07:02:24.358Z,1015.56
2017-09-22T07:03:34.634Z,1015.6
2017-09-22T07:04:45.193Z,1015.63
2017-09-22T07:05:54.844Z,1015.58
2017-09-22T07:07:05.093Z,1015.61
2017-09-22T07:08:15.062Z,1015.62
2017-09-22T07:09:25.320Z,1015.65
2017-09-22T07:10:35.586Z,1015.66
2017-09-22T07:11:45.546Z,1015.64
2017-09-22T07:12:55.805Z,1015.63
2017-09-22T07:14:06.060Z,1015.63
2017-09-22T07:15:16.328Z,1015.63
2017-09-22T07:16:26.599Z,1015.62
2017-09-22T07:17:36.572Z,1015.59
2017-09-22T07:18:47.187Z,1015.6
2017-09-22T07:19:57.206Z,1015.6
2017-09-22T07:21:07.504Z,1015.63
2017-09-22T07:22:17.366Z,1015.62
2017-09-22T07:23:27.343Z,1015.65
2017-09-22T07:24:37.864Z,1015.63
2017-09-22T07:25:48.134Z,1015.6
2017-09-22T07:26:57.758Z,1015.6
2017-09-22T07:28:08.031Z,1015.65
2017-09-22T07:29:17.967Z,1015.66
2017-09-22T07:30:27.972Z,1015.65
2017-09-22T07:31:38.221Z,1015.67
2017-09-22T07:32:47.853Z,1015.64
2017-09-22T07:33:57.799Z,1015.7
2017-09-22T07:35:07.774Z,1015.67
2017-09-22T07:36:17.962Z,1015.64
2017-09-22T07:37:27.933Z,1015.63
2017-09-22T07:38:37.901Z,1015.68
2017-09-22T07:39:48.153Z,1015.69
2017-09-22T07:40:58.420Z,1015.68
2017-09-22T07:42:08.718Z,1015.71
2017-09-22T07:43:18.656Z,1015.69
2017-09-22T07:44:28.923Z,1015.72
2017-09-22T07:45:39.181Z,1015.73
2017-09-22T07:46:49.445Z,1015.7
2017-09-22T07:47:58.991Z,1015.72
2017-09-22T07:49:08.950Z,1015.69
2017-09-22T07:50:19.204Z,1015.72
2017-09-22T07:51:29.475Z,1015.68
2017-09-22T07:52:39.732Z,1015.68
2017-09-22T07:53:50.298Z,1015.63
2017-09-22T07:55:00.581Z,1015.62
2017-09-22T07:56:10.842Z,1015.61
2017-09-22T07:57:20.803Z,1015.63
2017-09-22T07:58:30.761Z,1015.59
2017-09-22T07:59:41.397Z,1015.62
2017-09-22T08:00:51.664Z,1015.61
2017-09-22T08:02:01.922Z,1015.63
2017-09-22T08:03:12.204Z,1015.59
2017-09-22T08:04:22.488Z,1015.63
2017-09-22T08:05:33.000Z,1015.55
2017-09-22T08:06:42.949Z,1015.6
2017-09-22T08:07:53.302Z,1015.59
2017-09-22T08:09:03.604Z,1015.61
2017-09-22T08:10:13.871Z,1015.66
2017-09-22T08:11:24.490Z,1015.6
2017-09-22T08:12:34.131Z,1015.64
2017-09-22T08:13:44.394Z,1015.63
2017-09-22T08:14:54.672Z,1015.63
2017-09-22T08:16:04.944Z,1015.56
2017-09-22T08:17:15.618Z,1015.6
2017-09-22T08:18:25.884Z,1015.6
2017-09-22T08:19:36.143Z,1015.57
2017-09-22T08:20:46.410Z,1015.65
2017-09-22T08:21:56.361Z,1015.59
2017-09-22T08:23:06.879Z,1015.6
2017-09-22T08:24:17.336Z,1015.58
2017-09-22T08:25:27.592Z,1015.64
2017-09-22T08:26:37.849Z,1015.64
2017-09-22T08:27:48.113Z,1015.62
2017-09-22T08:28:58.722Z,1015.66
2017-09-22T08:30:09.000Z,1015.67
2017-09-22T08:31:18.961Z,1015.68
2017-09-22T08:32:28.912Z,1015.65
2017-09-22T08:33:39.195Z,1015.69
2017-09-22T08:34:49.702Z,1015.68
2017-09-22T08:35:59.660Z,1015.69
2017-09-22T08:37:09.923Z,1015.69
2017-09-22T08:38:19.884Z,1015.71
2017-09-22T08:39:29.836Z,1015.71
2017-09-22T08:40:40.406Z,1015.77
2017-09-22T08:41:50.679Z,1015.75
2017-09-22T08:43:00.950Z,1015.68
2017-09-22T08:44:11.228Z,1015.73
2017-09-22T08:45:21.183Z,1015.73
2017-09-22T08:46:31.715Z,1015.72
2017-09-22T08:47:42.204Z,1015.66
2017-09-22T08:48:52.494Z,1015.68
2017-09-22T08:50:03.021Z,1015.66
2017-09-22T08:51:13.285Z,1015.62
2017-09-22T08:52:23.803Z,1015.64
2017-09-22T08:53:34.072Z,1015.64
2017-09-22T08:54:44.334Z,1015.6
2017-09-22T08:55:54.285Z,1015.68
2017-09-22T08:57:04.550Z,1015.7
2017-09-22T08:58:15.132Z,1015.67
2017-09-22T08:59:25.399Z,1015.69
2017-09-22T09:00:35.662Z,1015.64
2017-09-22T09:01:45.656Z,1015.66
2017-09-22T09:02:55.607Z,1015.69
2017-09-22T09:04:06.197Z,1015.7
2017-09-22T09:05:16.460Z,1015.67
2017-09-22T09:06:26.763Z,1015.69
2017-09-22T09:07:37.378Z,1015.74
2017-09-22T09:08:47.650Z,1015.74
2017-09-22T09:09:58.190Z,1015.62
2017-09-22T09:11:08.461Z,1015.65
2017-09-22T09:12:18.728Z,1015.63
2017-09-22T09:13:28.677Z,1015.56
2017-09-22T09:14:38.956Z,1015.57
2017-09-22T09:15:49.169Z,1015.59
2017-09-22T09:16:59.485Z,1015.6
2017-09-22T09:18:09.781Z,1015.62
2017-09-22T09:19:20.081Z,1015.62
2017-09-22T09:20:30.344Z,1015.66
2017-09-22T09:21:40.953Z,1015.64
2017-09-22T09:22:51.216Z,1015.63
2017-09-22T09:24:01.162Z,1015.62
2017-09-22T09:25:11.433Z,1015.65
2017-09-22T09:26:21.384Z,1015.65
2017-09-22T09:27:31.269Z,1015.65
2017-09-22T09:28:41.186Z,1015.6
2017-09-22T09:29:51.445Z,1015.55
2017-09-22T09:31:01.714Z,1015.63
2017-09-22T09:32:11.676Z,1015.61
2017-09-22T09:33:21.870Z,1015.63
2017-09-22T09:34:32.049Z,1015.59
2017-09-22T09:35:42.323Z,1015.64
2017-09-22T09:36:52.596Z,1015.67
2017-09-22T09:38:02.548Z,1015.57
2017-09-22T09:39:12.480Z,1015.57
2017-09-22T09:40:22.761Z,1015.53
2017-09-22T09:41:33.030Z,1015.55
2017-09-22T09:42:42.671Z,1015.56
2017-09-22T09:43:52.944Z,1015.57
2017-09-22T09:45:03.260Z,1015.54
2017-09-22T09:46:13.220Z,1015.55
2017-09-22T09:47:22.863Z,1015.58
2017-09-22T09:48:33.141Z,1015.54
2017-09-22T09:49:43.239Z,1015.55
2017-09-22T09:50:53.825Z,1015.54
2017-09-22T09:52:03.778Z,1015.56
2017-09-22T09:53:14.052Z,1015.53
2017-09-22T09:54:24.313Z,1015.56
2017-09-22T09:55:34.269Z,1015.53
2017-09-22T09:56:44.886Z,1015.57
2017-09-22T09:57:55.145Z,1015.52
2017-09-22T09:59:05.430Z,1015.54
2017-09-22T10:00:15.705Z,1015.5
2017-09-22T10:01:25.981Z,1015.54
2017-09-22T10:02:36.545Z,1015.54
2017-09-22T10:03:46.822Z,1015.49
2017-09-22T10:04:57.081Z,1015.42
2017-09-22T10:06:07.346Z,1015.43
2017-09-22T10:07:17.296Z,1015.5
2017-09-22T10:08:27.911Z,1015.46
2017-09-22T10:09:38.166Z,1015.38
2017-09-22T10:10:48.113Z,1015.39
2017-09-22T10:11:58.398Z,1015.42
2017-09-22T10:13:08.345Z,1015.42
2017-09-22T10:14:18.979Z,1015.46
2017-09-22T10:15:28.605Z,1015.47
2017-09-22T10:16:38.924Z,1015.44
2017-09-22T10:17:49.181Z,1015.44
2017-09-22T10:18:59.453Z,1015.46
2017-09-22T10:20:10.065Z,1015.4
2017-09-22T10:21:20.320Z,1015.45
2017-09-22T10:22:30.585Z,1015.38
2017-09-22T10:23:40.904Z,1015.38
2017-09-22T10:24:51.182Z,1015.43
2017-09-22T10:26:01.802Z,1015.38
2017-09-22T10:27:12.124Z,1015.34
2017-09-22T10:28:22.078Z,1015.43
2017-09-22T10:29:32.366Z,1015.45
2017-09-22T10:30:42.649Z,1015.41
2017-09-22T10:31:53.220Z,1015.41
2017-09-22T10:33:03.484Z,1015.42
2017-09-22T10:34:13.761Z,1015.44
2017-09-22T10:35:24.043Z,1015.41
2017-09-22T10:36:34.336Z,1015.43
2017-09-22T10:37:44.545Z,1015.46
2017-09-22T10:38:54.524Z,1015.4
2017-09-22T10:40:04.798Z,1015.41
2017-09-22T10:41:14.485Z,1015.41
2017-09-22T10:42:24.769Z,1015.37
2017-09-22T10:43:34.998Z,1015.37
2017-09-22T10:44:45.280Z,1015.37
2017-09-22T10:45:55.220Z,1015.31
2017-09-22T10:47:05.507Z,1015.3
2017-09-22T10:48:15.777Z,1015.3
2017-09-22T10:49:25.444Z,1015.5
2017-09-22T10:50:35.710Z,1015.4
2017-09-22T10:51:45.669Z,1015.48
2017-09-22T10:52:55.632Z,1015.43
2017-09-22T10:54:05.909Z,1015.4
2017-09-22T10:55:16.432Z,1015.35
2017-09-22T10:56:26.712Z,1015.37
2017-09-22T10:57:36.977Z,1015.36
2017-09-22T10:58:47.282Z,1015.36
2017-09-22T10:59:57.567Z,1015.39
2017-09-22T11:01:08.154Z,1015.41
2017-09-22T11:02:18.424Z,1015.4
2017-09-22T11:03:28.696Z,1015.43
2017-09-22T11:04:39.210Z,1015.35
2017-09-22T11:05:49.165Z,1015.37
2017-09-22T11:06:59.679Z,1015.28
2017-09-22T11:08:09.950Z,1015.31
2017-09-22T11:09:19.906Z,1015.29
2017-09-22T11:10:29.611Z,1015.34
2017-09-22T11:11:39.891Z,1015.3
2017-09-22T11:12:50.418Z,1015.3
2017-09-22T11:14:00.670Z,1015.32
2017-09-22T11:15:10.976Z,1015.28
2017-09-22T11:16:21.305Z,1015.34
2017-09-22T11:17:31.598Z,1015.34
2017-09-22T11:18:42.149Z,1015.37
2017-09-22T11:19:52.415Z,1015.33
2017-09-22T11:21:02.686Z,1015.35
2017-09-22T11:22:12.957Z,1015.33
2017-09-22T11:23:23.220Z,1015.41
2017-09-22T11:24:33.754Z,1015.34
2017-09-22T11:25:44.047Z,1015.36
2017-09-22T11:26:54.647Z,1015.31
2017-09-22T11:28:04.911Z,1015.33
2017-09-22T11:29:15.198Z,1015.35
2017-09-22T11:30:25.708Z,1015.37
2017-09-22T11:31:35.976Z,1015.37
2017-09-22T11:32:46.251Z,1015.43
2017-09-22T11:33:56.516Z,1015.4
2017-09-22T11:35:06.783Z,1015.37
2017-09-22T11:36:16.991Z,1015.38
2017-09-22T11:37:27.254Z,1015.44
2017-09-22T11:38:37.208Z,1015.4
2017-09-22T11:39:46.842Z,1015.47
2017-09-22T11:40:56.792Z,1015.36
2017-09-22T11:42:07.417Z,1015.36
2017-09-22T11:43:17.369Z,1015.36
2017-09-22T11:44:27.629Z,1015.3
2017-09-22T11:45:37.906Z,1015.37
2017-09-22T11:46:48.937Z,1015.38
2017-09-22T11:47:59.566Z,1015.36
2017-09-22T11:49:09.845Z,1015.3
2017-09-22T11:50:19.821Z,1015.33
2017-09-22T11:51:29.782Z,1015.29
2017-09-22T11:52:40.058Z,1015.3
2017-09-22T11:53:50.347Z,1015.29
2017-09-22T11:55:00.308Z,1015.3
2017-09-22T11:56:10.589Z,1015.24
2017-09-22T11:57:20.859Z,1015.33
2017-09-22T11:58:31.147Z,1015.28
2017-09-22T11:59:41.734Z,1015.26
2017-09-22T12:00:52.011Z,1015.29
2017-09-22T12:02:02.311Z,1015.3
2017-09-22T12:03:12.303Z,1015.29
2017-09-22T12:04:21.954Z,1015.26
2017-09-22T12:05:32.266Z,1015.24
2017-09-22T12:06:42.557Z,1015.36
2017-09-22T12:07:53.087Z,1015.26
2017-09-22T12:09:02.730Z,1015.2
2017-09-22T12:10:12.678Z,1015.28
2017-09-22T12:11:22.987Z,1015.31
2017-09-22T12:12:32.936Z,1015.29
2017-09-22T12:13:42.886Z,1015.33
2017-09-22T12:14:52.844Z,1015.32
2017-09-22T12:16:03.128Z,1015.33
2017-09-22T12:17:13.337Z,1015.3
2017-09-22T12:18:23.534Z,1015.31
2017-09-22T12:19:33.810Z,1015.33
2017-09-22T12:20:44.082Z,1015.25
2017-09-22T12:21:54.660Z,1015.27
2017-09-22T12:23:05.335Z,1015.28
2017-09-22T12:24:15.604Z,1015.3
2017-09-22T12:25:25.893Z,1015.27
2017-09-22T12:26:36.197Z,1015.3
2017-09-22T12:27:46.497Z,1015.3
2017-09-22T12:28:57.130Z,1015.31
2017-09-22T12:30:07.408Z,1015.33
2017-09-22T12:31:17.359Z,1015.27
2017-09-22T12:32:27.660Z,1015.29
2017-09-22T12:33:37.622Z,1015.3
2017-09-22T12:34:47.919Z,1015.27
2017-09-22T12:35:58.445Z,1015.24
2017-09-22T12:37:08.749Z,1015.28
2017-09-22T12:38:18.676Z,1015.27
2017-09-22T12:39:28.309Z,1015.32
2017-09-22T12:40:38.827Z,1015.33
2017-09-22T12:41:49.139Z,1015.25
2017-09-22T12:42:59.457Z,1015.32
2017-09-22T12:44:09.951Z,1015.35
2017-09-22T12:45:20.221Z,1015.33
2017-09-22T12:46:30.873Z,1015.32
2017-09-22T12:47:40.826Z,1015.35
2017-09-22T12:48:51.100Z,1015.3
2017-09-22T12:50:01.369Z,1015.29
2017-09-22T12:51:11.679Z,1015.29
2017-09-22T12:52:21.991Z,1015.3
2017-09-22T12:53:31.945Z,1015.33
2017-09-22T12:54:41.902Z,1015.35
2017-09-22T12:55:51.530Z,1015.31
2017-09-22T12:57:01.793Z,1015.3
2017-09-22T12:58:12.557Z,1015.28
2017-09-22T12:59:22.832Z,1015.27
2017-09-22T13:00:33.096Z,1015.3
2017-09-22T13:01:43.359Z,1015.32
2017-09-22T13:02:53.319Z,1015.3
2017-09-22T13:04:03.833Z,1015.29
2017-09-22T13:05:13.803Z,1015.32
2017-09-22T13:06:24.068Z,1015.3
2017-09-22T13:07:34.336Z,1015.31
2017-09-22T13:08:44.606Z,1015.33
2017-09-22T13:09:55.120Z,1015.3
2017-09-22T13:11:05.394Z,1015.35
2017-09-22T13:12:15.667Z,1015.36
2017-09-22T13:13:25.628Z,1015.37
2017-09-22T13:14:35.907Z,1015.39
2017-09-22T13:15:46.529Z,1015.41
2017-09-22T13:16:56.485Z,1015.44
2017-09-22T13:18:06.754Z,1015.45
2017-09-22T13:19:17.039Z,1015.47
2017-09-22T13:20:27.327Z,1015.42
2017-09-22T13:21:37.946Z,1015.37
2017-09-22T13:22:48.217Z,1015.42
2017-09-22T13:23:58.478Z,1015.39
2017-09-22T13:25:08.417Z,1015.36
2017-09-22T13:26:18.361Z,1015.43
2017-09-22T13:27:28.977Z,1015.38
2017-09-22T13:28:38.638Z,1015.35
2017-09-22T13:29:48.912Z,1015.4
2017-09-22T13:30:59.163Z,1015.37
2017-09-22T13:32:09.434Z,1015.41
2017-09-22T13:33:19.645Z,1015.37
2017-09-22T13:34:29.957Z,1015.43
2017-09-22T13:35:40.216Z,1015.36
2017-09-22T13:36:49.873Z,1015.34
2017-09-22T13:38:00.142Z,1015.39
2017-09-22T13:39:10.021Z,1015.38
2017-09-22T13:40:19.973Z,1015.38
2017-09-22T13:41:29.916Z,1015.44
2017-09-22T13:42:39.546Z,1015.45
2017-09-22T13:43:49.808Z,1015.49
2017-09-22T13:45:00.390Z,1015.47
2017-09-22T13:46:10.674Z,1015.48
2017-09-22T13:47:20.965Z,1015.48
2017-09-22T13:48:30.905Z,1015.44
2017-09-22T13:49:40.553Z,1015.46
2017-09-22T13:50:50.853Z,1015.44
2017-09-22T13:52:01.122Z,1015.47
2017-09-22T13:53:11.093Z,1015.57
2017-09-22T13:54:21.041Z,1015.55
2017-09-22T13:55:31.298Z,1015.58
2017-09-22T13:56:41.827Z,1015.59
2017-09-22T13:57:52.089Z,1015.61
2017-09-22T13:59:02.355Z,1015.59
2017-09-22T14:00:12.636Z,1015.59
2017-09-22T14:01:22.274Z,1015.57
2017-09-22T14:02:32.580Z,1015.56
2017-09-22T14:03:42.863Z,1015.53
2017-09-22T14:04:53.148Z,1015.55
2017-09-22T14:06:03.452Z,1015.51
2017-09-22T14:07:13.711Z,1015.52
2017-09-22T14:08:24.268Z,1015.52
2017-09-22T14:09:34.538Z,1015.52
2017-09-22T14:10:44.477Z,1015.54
2017-09-22T14:11:54.745Z,1015.57
2017-09-22T14:13:05.238Z,1015.5